Bell Ranch, New Mexico
Current Conditions -  °F | °C
As of 7:53 AM on Monday 22 Dec 2014 (Local Time) from KTCC Reporting Station
Clear Clear  
Wind Chill: 36°   Ceiling: Unl
Heat Index: 41°   Visibility: 10mi
Dew Point: 31°   Wind: 8mph
Humidity: 67%   Direction: 350°N
Pressure: 29.78"   Gusts: NA
Location:  35.59°N, 104.11°W
Report Text: KTCC 221453Z AUTO 35007KT 10SM CLR 05/M01 A2978 RMK AO2 SLP070 T00501006 50026
Loading
Personal Weather Stations






























Interactive Weather Map New forecast layout! Learn more

10-Day Weather Forecast

Advertisements
Track Severe Weather on mobile